Time;durP1;ratioP1;P1;durP2;ratioP2;P2;SDS_P1;SDS_P2;PMS_P1;PMS_P2;Temp;Humidity;BMP_temperature;BMP_pressure;BME280_temperature;BME280_humidity;BME280_pressure;Samples;Min_cycle;Max_cycle;Signal;HPM_P1;HPM_P2
2022/05/02 00:00:33;;;;;;;17.67;8.85;;;9.20;99.90;;;;;;5074837;28;20019;-62
2022/05/02 00:02:58;;;;;;;18.98;8.95;;;9.20;99.90;;;;;;5072841;28;20066;-62
2022/05/02 00:05:25;;;;;;;21.55;10.82;;;9.20;99.90;;;;;;5075056;28;20052;-61
2022/05/02 00:07:51;;;;;;;19.15;9.27;;;9.20;99.90;;;;;;5075086;28;20016;-61
2022/05/02 00:10:17;;;;;;;19.48;10.15;;;9.20;99.90;;;;;;5074265;28;20097;-61
2022/05/02 00:12:42;;;;;;;19.58;9.15;;;9.20;99.90;;;;;;5075132;28;20020;-61
2022/05/02 00:15:09;;;;;;;17.63;9.02;;;9.20;99.90;;;;;;5073988;28;20024;-63
2022/05/02 00:20:19;;;;;;;19.90;9.45;;;9.10;99.90;;;;;;5070125;28;20076;-64
2022/05/02 00:22:47;;;;;;;18.45;9.38;;;9.10;99.90;;;;;;5054317;28;20104;-62
2022/05/02 00:25:13;;;;;;;20.48;10.02;;;9.10;99.90;;;;;;5054782;28;20025;-64
2022/05/02 00:27:40;;;;;;;20.42;9.77;;;9.10;99.90;;;;;;5054261;28;20118;-62
2022/05/02 00:30:07;;;;;;;24.42;11.63;;;9.10;99.90;;;;;;5061126;28;20037;-64
2022/05/02 00:32:33;;;;;;;22.73;11.38;;;9.10;99.90;;;;;;5059319;28;20025;-63
2022/05/02 00:34:58;;;;;;;22.52;11.18;;;9.10;99.90;;;;;;5053566;28;20027;-63
2022/05/02 00:37:24;;;;;;;22.80;10.45;;;9.10;99.90;;;;;;5054473;28;20025;-62
2022/05/02 00:39:50;;;;;;;26.42;13.50;;;9.10;99.90;;;;;;5054328;28;20027;-64
2022/05/02 00:42:15;;;;;;;33.08;16.92;;;9.10;99.90;;;;;;5054298;28;20529;-63
2022/05/02 00:44:43;;;;;;;25.05;12.90;;;9.00;99.90;;;;;;5054492;28;20025;-62
2022/05/02 00:47:09;;;;;;;21.63;11.00;;;9.00;99.90;;;;;;5047837;28;20059;-64
2022/05/02 00:49:37;;;;;;;24.33;12.00;;;8.90;99.90;;;;;;5068480;28;20367;-64
2022/05/02 00:52:04;;;;;;;25.60;11.35;;;8.90;99.90;;;;;;5073570;28;20024;-61
2022/05/02 00:54:30;;;;;;;47.60;22.75;;;8.90;99.90;;;;;;5053628;28;20021;-61
2022/05/02 00:56:55;;;;;;;38.22;20.17;;;8.90;99.90;;;;;;5050579;28;20032;-63
2022/05/02 00:59:23;;;;;;;52.50;31.13;;;8.80;99.90;;;;;;5046480;28;20100;-62
2022/05/02 01:01:48;;;;;;;46.70;33.00;;;8.80;99.90;;;;;;5074074;28;20025;-63
2022/05/02 01:04:14;;;;;;;28.27;18.05;;;8.80;99.90;;;;;;5066823;28;20024;-65
2022/05/02 01:09:24;;;;;;;22.35;11.82;;;8.70;99.90;;;;;;5053752;28;20148;-62
2022/05/02 01:11:53;;;;;;;21.75;11.35;;;8.70;99.90;;;;;;5052578;28;20140;-62
2022/05/02 01:14:19;;;;;;;19.38;9.77;;;8.70;99.90;;;;;;5050913;28;20019;-64
2022/05/02 01:16:45;;;;;;;22.45;11.30;;;8.60;99.90;;;;;;5054928;28;20033;-64
2022/05/02 01:19:11;;;;;;;21.17;10.45;;;8.60;99.90;;;;;;5062606;28;20078;-62
2022/05/02 01:21:37;;;;;;;20.20;10.65;;;8.50;99.90;;;;;;5060176;28;20028;-64
2022/05/02 01:24:04;;;;;;;21.40;10.45;;;8.50;99.90;;;;;;5068721;28;20039;-62
2022/05/02 01:26:30;;;;;;;22.17;10.38;;;8.50;99.90;;;;;;5054783;28;20013;-61
2022/05/02 01:28:58;;;;;;;20.85;10.38;;;8.40;99.90;;;;;;5062625;28;20056;-62
2022/05/02 01:31:24;;;;;;;19.90;9.85;;;8.40;99.90;;;;;;5061841;28;20096;-64
2022/05/02 01:33:50;;;;;;;19.65;9.75;;;8.40;99.90;;;;;;5054886;28;20206;-62
2022/05/02 01:36:17;;;;;;;21.80;10.10;;;8.40;99.90;;;;;;5069649;28;20032;-62
2022/05/02 01:38:43;;;;;;;17.75;9.50;;;8.40;99.90;;;;;;5053384;28;20059;-62
2022/05/02 01:41:09;;;;;;;21.27;9.77;;;8.40;99.90;;;;;;5060452;28;20052;-61
2022/05/02 01:43:36;;;;;;;19.63;9.57;;;8.40;99.90;;;;;;5060194;28;20512;-61
2022/05/02 01:46:04;;;;;;;21.20;10.27;;;8.40;99.90;;;;;;5062048;28;20017;-62
2022/05/02 01:48:29;;;;;;;21.27;9.57;;;8.40;99.90;;;;;;5069456;28;20028;-62
2022/05/02 01:50:57;;;;;;;23.98;11.10;;;8.40;99.90;;;;;;5060108;28;20105;-61
2022/05/02 01:53:22;;;;;;;21.38;11.23;;;8.30;99.90;;;;;;5061887;28;20100;-62
2022/05/02 01:55:48;;;;;;;26.05;11.65;;;8.30;99.90;;;;;;5065984;28;20107;-62
2022/05/02 01:58:14;;;;;;;22.05;10.85;;;8.30;99.90;;;;;;5071037;28;20021;-62
2022/05/02 02:00:39;;;;;;;20.40;10.52;;;8.30;99.90;;;;;;5056051;28;20445;-62
2022/05/02 02:03:05;;;;;;;22.20;10.40;;;8.30;99.90;;;;;;5062782;28;20104;-62
2022/05/02 02:05:48;;;;;;;21.73;11.38;;;8.30;99.90;;;;;;5063195;28;20112;-61
2022/05/02 02:08:20;;;;;;;20.52;10.43;;;8.30;99.90;;;;;;5055948;28;20049;-61
2022/05/02 02:10:46;;;;;;;21.15;10.85;;;8.20;99.90;;;;;;5065068;28;20020;-62
2022/05/02 02:13:13;;;;;;;19.48;9.50;;;8.20;99.90;;;;;;5067546;28;20055;-62
2022/05/02 02:15:39;;;;;;;20.23;9.88;;;8.20;99.90;;;;;;5065600;28;20441;-62
2022/05/02 02:18:05;;;;;;;21.65;10.77;;;8.20;99.90;;;;;;5055575;28;20044;-61
2022/05/02 02:20:31;;;;;;;21.45;10.98;;;8.20;99.90;;;;;;5066969;28;20020;-62
2022/05/02 02:22:57;;;;;;;20.83;11.55;;;8.20;99.90;;;;;;5064490;28;20021;-61
2022/05/02 02:25:23;;;;;;;24.92;12.77;;;8.20;99.90;;;;;;5061878;28;20077;-61
2022/05/02 02:27:49;;;;;;;23.50;11.95;;;8.20;99.90;;;;;;5057368;28;20072;-62
2022/05/02 02:30:14;;;;;;;21.35;11.93;;;8.20;99.90;;;;;;5066598;28;20112;-61
2022/05/02 02:32:41;;;;;;;24.20;11.73;;;8.10;99.90;;;;;;5067572;28;20028;-62
2022/05/02 02:35:07;;;;;;;24.55;12.20;;;8.10;99.90;;;;;;5060740;28;20051;-62
2022/05/02 02:37:32;;;;;;;20.55;10.85;;;8.10;99.90;;;;;;5059769;28;20032;-62
2022/05/02 02:39:58;;;;;;;21.88;10.57;;;8.10;99.90;;;;;;5066665;28;20021;-62
2022/05/02 02:42:24;;;;;;;22.55;11.20;;;8.00;99.90;;;;;;5054980;28;20366;-61
2022/05/02 02:44:50;;;;;;;24.55;11.77;;;8.00;99.90;;;;;;5064417;28;20497;-62
2022/05/02 02:47:16;;;;;;;20.88;10.48;;;8.00;99.90;;;;;;5056820;28;20159;-62
2022/05/02 02:49:41;;;;;;;21.30;10.63;;;8.00;99.90;;;;;;5065650;28;20334;-62
2022/05/02 02:52:08;;;;;;;21.23;10.65;;;8.00;99.90;;;;;;5055459;28;20031;-61
2022/05/02 02:54:34;;;;;;;19.45;9.82;;;8.00;99.90;;;;;;5068005;28;20028;-65
2022/05/02 02:57:00;;;;;;;22.10;11.45;;;7.90;99.90;;;;;;5051631;28;20044;-64
2022/05/02 02:59:25;;;;;;;24.25;11.07;;;7.90;99.90;;;;;;5052396;28;20032;-62
2022/05/02 03:01:51;;;;;;;24.95;11.30;;;7.90;99.90;;;;;;5052236;28;20063;-63
2022/05/02 03:07:09;;;;;;;;;;;7.90;99.90;;;;;;5063763;28;20075;-63
2022/05/02 03:09:35;;;;;;;21.95;10.43;;;7.90;99.90;;;;;;5069217;28;20323;-63
2022/05/02 03:12:01;;;;;;;21.70;10.30;;;7.80;99.90;;;;;;5051881;28;20036;-63
2022/05/02 03:14:26;;;;;;;21.92;11.07;;;7.80;99.90;;;;;;5052086;28;20025;-65
2022/05/02 03:16:52;;;;;;;22.80;11.70;;;7.80;99.90;;;;;;5052231;28;20515;-63
2022/05/02 03:19:17;;;;;;;21.92;11.05;;;7.70;99.90;;;;;;5052122;28;20052;-64
2022/05/02 03:21:43;;;;;;;22.25;11.00;;;7.70;99.90;;;;;;5060539;28;20143;-63
2022/05/02 03:24:09;;;;;;;25.17;11.52;;;7.70;99.90;;;;;;5071750;28;20013;-65
2022/05/02 03:26:34;;;;;;;21.13;10.77;;;7.70;99.90;;;;;;5071977;28;20025;-63
2022/05/02 03:29:00;;;;;;;21.95;10.93;;;7.70;99.90;;;;;;5072055;28;20071;-63
2022/05/02 03:31:25;;;;;;;21.52;11.40;;;7.60;99.90;;;;;;5073875;28;20028;-63
2022/05/02 03:33:51;;;;;;;22.70;11.05;;;7.60;99.90;;;;;;5072099;28;20028;-63
2022/05/02 03:36:16;;;;;;;22.52;11.45;;;7.60;99.90;;;;;;5066609;28;20092;-64
2022/05/02 03:38:42;;;;;;;32.13;12.23;;;7.60;99.90;;;;;;5060890;28;20085;-64
2022/05/02 03:41:07;;;;;;;24.88;11.57;;;7.60;99.90;;;;;;5052324;28;20111;-61
2022/05/02 03:43:34;;;;;;;22.25;11.60;;;7.60;99.90;;;;;;5063294;28;20105;-62
2022/05/02 03:45:59;;;;;;;24.75;11.68;;;7.50;99.90;;;;;;5061919;28;20032;-61
2022/05/02 03:48:26;;;;;;;21.20;10.73;;;7.50;99.90;;;;;;5070691;28;20036;-63
2022/05/02 03:50:52;;;;;;;23.10;11.52;;;7.50;99.90;;;;;;5058370;28;20040;-64
2022/05/02 03:53:18;;;;;;;22.52;10.82;;;7.50;99.90;;;;;;5068711;28;20024;-63
2022/05/02 03:55:45;;;;;;;23.50;11.13;;;7.40;99.90;;;;;;5055788;28;20020;-64
2022/05/02 03:58:11;;;;;;;22.92;11.63;;;7.40;99.90;;;;;;5063643;28;20052;-63
2022/05/02 04:00:37;;;;;;;22.05;11.20;;;7.40;99.90;;;;;;5074446;28;20027;-63
2022/05/02 04:03:02;;;;;;;24.08;11.35;;;7.40;99.90;;;;;;5070631;28;20025;-61
2022/05/02 04:05:28;;;;;;;23.70;11.77;;;7.40;99.90;;;;;;5061937;28;20163;-61
2022/05/02 04:07:53;;;;;;;23.52;11.30;;;7.40;99.90;;;;;;5063286;28;20083;-63
2022/05/02 04:10:19;;;;;;;23.42;12.05;;;7.40;99.90;;;;;;5068963;28;20448;-64
2022/05/02 04:12:45;;;;;;;23.52;12.15;;;7.40;99.90;;;;;;5058171;28;20071;-61
2022/05/02 04:15:11;;;;;;;25.38;11.77;;;7.40;99.90;;;;;;5067860;28;20062;-62
2022/05/02 04:17:37;;;;;;;22.75;11.15;;;7.40;99.90;;;;;;5063157;28;20020;-65
2022/05/02 04:20:04;;;;;;;25.58;11.27;;;7.40;99.90;;;;;;5065597;28;20025;-64
2022/05/02 04:22:30;;;;;;;25.45;13.02;;;7.40;99.90;;;;;;5057873;28;20112;-61
2022/05/02 04:24:55;;;;;;;23.05;11.77;;;7.40;99.90;;;;;;5071019;28;20057;-63
2022/05/02 04:27:21;;;;;;;22.02;11.35;;;7.40;99.90;;;;;;5042613;28;20029;-64
2022/05/02 04:29:47;;;;;;;23.17;11.43;;;7.40;99.90;;;;;;5064648;28;20071;-61
2022/05/02 04:32:12;;;;;;;24.23;12.18;;;7.40;99.90;;;;;;5068104;28;20032;-62
2022/05/02 04:34:38;;;;;;;23.65;11.82;;;7.40;99.90;;;;;;5046179;28;20066;-64
2022/05/02 04:37:04;;;;;;;21.77;11.20;;;7.40;99.90;;;;;;5069646;28;20016;-65
2022/05/02 04:39:29;;;;;;;25.55;12.80;;;7.40;99.90;;;;;;5060781;28;20020;-63
2022/05/02 04:41:55;;;;;;;24.35;11.38;;;7.50;99.90;;;;;;5062578;28;20028;-64
2022/05/02 04:44:21;;;;;;;23.75;11.50;;;7.50;99.90;;;;;;5066866;28;20453;-64
2022/05/02 04:46:46;;;;;;;23.00;12.00;;;7.50;99.90;;;;;;5057811;28;20025;-61
2022/05/02 04:49:12;;;;;;;24.38;12.45;;;7.50;99.90;;;;;;5068319;28;20031;-63
2022/05/02 04:51:37;;;;;;;25.50;11.77;;;7.50;99.90;;;;;;5062527;28;20020;-63
2022/05/02 04:54:03;;;;;;;25.63;12.70;;;7.60;99.90;;;;;;5073688;28;20371;-64
2022/05/02 04:56:28;;;;;;;23.67;12.05;;;7.60;99.90;;;;;;5057607;28;20472;-66
2022/05/02 04:58:54;;;;;;;24.77;12.90;;;7.60;99.90;;;;;;5070428;28;20029;-62
2022/05/02 05:01:20;;;;;;;27.73;12.60;;;7.70;99.90;;;;;;5059881;28;20021;-62
2022/05/02 05:03:46;;;;;;;24.67;12.13;;;7.70;99.90;;;;;;5060371;28;20113;-62
2022/05/02 05:06:12;;;;;;;24.95;12.43;;;7.80;99.90;;;;;;5073057;28;20338;-63
2022/05/02 05:08:38;;;;;;;23.85;11.85;;;7.80;99.90;;;;;;5057215;28;20033;-61
2022/05/02 05:11:46;;;;;;;24.48;11.98;;;7.90;99.90;;;;;;5069299;28;20348;-65
2022/05/02 05:17:34;;;;;;;24.77;11.07;;;8.10;99.90;;;;;;5041903;28;20027;-65
2022/05/02 05:20:13;;;;;;;21.52;11.63;;;8.20;99.90;;;;;;5061930;28;20021;-65
2022/05/02 05:22:54;;;;;;;23.20;11.75;;;8.30;99.90;;;;;;5053164;28;20029;-63
2022/05/02 05:25:58;;;;;;;22.73;11.73;;;8.40;99.90;;;;;;5053779;28;20029;-61
2022/05/02 05:28:37;;;;;;;19.60;10.63;;;8.50;99.90;;;;;;5053780;28;20083;-61
2022/05/02 05:31:13;;;;;;;23.58;11.00;;;8.60;99.90;;;;;;5053682;28;20040;-62
2022/05/02 05:33:56;;;;;;;23.02;11.73;;;8.70;99.90;;;;;;5054053;28;20020;-61
2022/05/02 05:36:51;;;;;;;21.83;10.55;;;8.80;99.90;;;;;;5049310;28;20052;-61
2022/05/02 05:39:33;;;;;;;18.90;9.40;;;8.90;99.90;;;;;;5051930;28;20511;-61
2022/05/02 05:42:16;;;;;;;18.48;9.32;;;9.00;99.90;;;;;;5053093;28;20108;-62
2022/05/02 05:45:08;;;;;;;21.13;10.38;;;9.10;99.90;;;;;;5052932;28;20113;-61
2022/05/02 05:47:51;;;;;;;19.52;10.45;;;9.20;99.90;;;;;;5053159;28;20077;-62
2022/05/02 05:50:28;;;;;;;20.40;10.00;;;9.40;99.90;;;;;;5053212;28;20029;-62
2022/05/02 05:53:19;;;;;;;21.10;10.43;;;9.50;99.90;;;;;;5051744;28;20476;-62
2022/05/02 05:56:09;;;;;;;19.25;10.07;;;9.70;99.90;;;;;;5052774;28;20030;-62
2022/05/02 05:58:46;;;;;;;18.75;8.63;;;9.90;99.90;;;;;;5053438;28;20087;-61
2022/05/02 06:01:17;;;;;;;18.60;9.63;;;10.00;99.90;;;;;;5051726;28;20036;-62
2022/05/02 06:04:03;;;;;;;20.15;8.75;;;10.20;99.90;;;;;;5053092;28;20048;-62
2022/05/02 06:06:29;;;;;;;16.83;8.07;;;10.40;99.90;;;;;;5053034;28;20048;-62
2022/05/02 06:08:59;;;;;;;17.58;9.07;;;10.60;99.90;;;;;;5052486;28;20449;-62
2022/05/02 06:11:29;;;;;;;18.90;9.10;;;10.70;99.90;;;;;;5053105;28;20017;-62
2022/05/02 06:13:58;;;;;;;20.92;9.02;;;11.00;99.90;;;;;;5052699;28;20016;-63
2022/05/02 06:19:16;;;;;;;17.52;9.55;;;11.50;99.90;;;;;;5049212;28;20039;-63
2022/05/02 06:21:46;;;;;;;20.10;10.05;;;11.90;99.90;;;;;;5052450;28;20027;-62
2022/05/02 06:24:14;;;;;;;18.30;9.30;;;12.40;99.90;;;;;;5052531;28;20465;-62
2022/05/02 06:26:42;;;;;;;15.38;8.27;;;13.10;99.90;;;;;;5052841;28;20055;-64
2022/05/02 06:29:08;;;;;;;17.60;8.45;;;13.90;99.90;;;;;;5064594;28;20477;-66
2022/05/02 06:31:37;;;;;;;13.75;7.60;;;14.60;99.90;;;;;;5071312;28;20471;-66
2022/05/02 06:34:04;;;;;;;19.02;8.40;;;15.40;99.90;;;;;;5065926;28;20689;-65
2022/05/02 06:36:51;;;;;;;15.70;7.40;;;16.20;99.90;;;;;;5050644;28;20055;-61
2022/05/02 06:39:31;;;;;;;15.27;7.35;;;17.00;99.90;;;;;;5060225;28;20037;-64
2022/05/02 06:41:57;;;;;;;19.33;7.97;;;17.90;99.90;;;;;;5055567;28;20052;-66
2022/05/02 06:44:31;;;;;;;17.67;8.10;;;18.60;99.00;;;;;;5052906;28;20052;-65
2022/05/02 06:47:15;;;;;;;13.23;7.75;;;19.20;98.40;;;;;;5071441;28;20029;-66
2022/05/02 06:49:43;;;;;;;14.38;7.40;;;20.00;96.40;;;;;;5072406;28;20028;-63
2022/05/02 06:52:11;;;;;;;16.60;7.72;;;20.50;95.60;;;;;;5055790;28;20121;-63
2022/05/02 06:54:44;;;;;;;13.52;6.70;;;20.90;95.00;;;;;;5051959;28;20104;-61
2022/05/02 06:57:18;;;;;;;12.48;7.30;;;21.50;93.90;;;;;;5052521;28;20032;-63
2022/05/02 06:59:57;;;;;;;14.85;7.57;;;21.80;92.80;;;;;;5049209;28;20465;-64
2022/05/02 07:02:49;;;;;;;15.70;8.55;;;21.90;92.30;;;;;;5058248;28;20020;-63
2022/05/02 07:05:41;;;;;;;15.68;7.60;;;22.10;91.80;;;;;;5071966;28;20448;-60
2022/05/02 07:08:07;;;;;;;14.18;7.45;;;22.20;90.80;;;;;;5072751;28;20094;-65
2022/05/02 07:10:35;;;;;;;12.50;6.97;;;22.10;90.60;;;;;;5076139;28;20399;-65
2022/05/02 07:13:38;;;;;;;13.95;7.78;;;22.20;90.50;;;;;;5075627;28;20021;-64
2022/05/02 07:16:16;;;;;;;12.80;7.40;;;22.30;90.10;;;;;;5074175;28;20035;-65
2022/05/02 07:19:16;;;;;;;12.80;7.60;;;22.20;89.80;;;;;;5075112;28;20095;-61
2022/05/02 07:21:56;;;;;;;14.02;6.95;;;21.80;90.00;;;;;;5058496;28;20070;-64
2022/05/02 07:24:46;;;;;;;12.48;7.45;;;21.20;90.20;;;;;;5055883;28;20051;-63
2022/05/02 07:27:33;;;;;;;12.70;7.13;;;20.70;91.10;;;;;;5054583;28;20021;-63
2022/05/02 07:29:59;;;;;;;19.25;7.63;;;20.20;91.70;;;;;;5055512;28;20036;-64
2022/05/02 07:32:26;;;;;;;12.05;6.85;;;19.80;92.10;;;;;;5055304;28;20381;-61
2022/05/02 07:34:54;;;;;;;15.90;7.63;;;19.30;92.10;;;;;;5054960;28;20043;-62
2022/05/02 07:37:23;;;;;;;15.73;8.20;;;18.80;93.50;;;;;;5055726;28;20017;-64
2022/05/02 07:39:50;;;;;;;16.20;7.75;;;18.50;93.90;;;;;;5054186;28;20091;-64
2022/05/02 07:42:18;;;;;;;15.90;8.02;;;18.20;94.00;;;;;;5054473;28;20075;-64
2022/05/02 07:44:44;;;;;;;12.65;7.38;;;18.00;94.40;;;;;;5054954;28;20029;-62
2022/05/02 07:47:11;;;;;;;13.80;7.57;;;17.90;94.80;;;;;;5053491;28;20068;-63
2022/05/02 07:49:39;;;;;;;13.75;7.43;;;17.90;95.10;;;;;;5053649;28;20029;-63
2022/05/02 07:52:08;;;;;;;17.35;7.93;;;18.20;95.00;;;;;;5054098;28;20472;-64
2022/05/02 07:54:40;;;;;;;13.30;7.30;;;18.60;94.80;;;;;;5054396;28;20372;-62
2022/05/02 07:57:07;;;;;;;11.25;7.05;;;19.20;93.40;;;;;;5052275;28;20104;-62
2022/05/02 07:59:39;;;;;;;12.77;6.47;;;19.60;92.70;;;;;;5053082;28;20083;-64
2022/05/02 08:02:05;;;;;;;11.60;6.95;;;20.20;91.60;;;;;;5050966;28;20365;-62
2022/05/02 08:04:31;;;;;;;12.32;6.65;;;20.80;91.20;;;;;;5054579;28;20027;-63
2022/05/02 08:07:13;;;;;;;14.32;6.80;;;21.60;90.90;;;;;;5053023;28;20033;-66
2022/05/02 08:09:57;;;;;;;10.95;5.88;;;22.60;88.30;;;;;;5054824;28;20025;-64
2022/05/02 08:12:51;;;;;;;11.00;5.88;;;23.70;83.00;;;;;;5033980;28;20029;-64
2022/05/02 08:15:23;;;;;;;9.68;6.10;;;24.60;80.50;;;;;;5034767;28;20079;-64
2022/05/02 08:18:07;;;;;;;11.23;5.65;;;25.30;78.20;;;;;;5033431;28;20439;-62
2022/05/02 08:20:42;;;;;;;10.25;5.75;;;26.00;74.80;;;;;;5042599;28;20096;-62
2022/05/02 08:28:49;;;;;;;10.45;4.97;;;27.70;67.20;;;;;;5052649;28;20500;-64
2022/05/02 08:31:24;;;;;;;7.63;5.40;;;28.30;65.30;;;;;;5053542;28;20465;-63
2022/05/02 08:34:13;;;;;;;9.85;5.70;;;28.80;63.00;;;;;;5053919;28;20026;-66
2022/05/02 08:37:15;;;;;;;12.45;6.82;;;29.20;61.20;;;;;;5048504;28;20469;-61
2022/05/02 08:40:04;;;;;;;8.57;6.07;;;29.60;61.30;;;;;;5054228;28;20511;-61
2022/05/02 08:42:44;;;;;;;9.80;5.25;;;29.90;58.60;;;;;;5054019;28;20021;-63
2022/05/02 08:45:46;;;;;;;7.75;5.07;;;30.00;56.90;;;;;;5055717;28;20106;-66
2022/05/02 08:48:21;;;;;;;10.50;5.80;;;30.10;56.80;;;;;;5054277;28;20025;-64
2022/05/02 08:50:55;;;;;;;9.73;5.55;;;30.40;56.10;;;;;;5049929;28;20416;-61
2022/05/02 08:53:58;;;;;;;10.23;5.50;;;30.70;55.20;;;;;;5046416;28;20021;-63
2022/05/02 08:56:29;;;;;;;9.30;5.53;;;31.30;53.80;;;;;;5054057;28;20022;-65
2022/05/02 08:59:32;;;;;;;8.95;5.70;;;31.70;52.90;;;;;;5052367;28;20028;-61
2022/05/02 09:03:08;;;;;;;9.77;5.32;;;32.00;51.70;;;;;;5043122;28;20064;-65
2022/05/02 09:06:07;;;;;;;9.68;5.80;;;32.10;51.30;;;;;;4992314;28;20080;-61
2022/05/02 09:08:48;;;;;;;10.85;5.63;;;32.20;50.80;;;;;;5037435;28;20364;-63
2022/05/02 09:11:33;;;;;;;9.50;5.95;;;32.60;51.10;;;;;;5053833;28;20060;-65
2022/05/02 09:14:20;;;;;;;7.95;5.55;;;33.00;49.80;;;;;;5052858;28;20028;-63
2022/05/02 09:17:35;;;;;;;9.38;5.70;;;33.20;49.10;;;;;;5052904;28;20071;-64
2022/05/02 09:20:10;;;;;;;7.10;5.63;;;33.20;48.20;;;;;;5031461;28;20021;-63
2022/05/02 09:22:52;;;;;;;9.60;5.40;;;33.40;48.00;;;;;;5034002;28;20468;-63
2022/05/02 09:25:50;;;;;;;10.25;5.15;;;33.40;47.10;;;;;;5033301;28;20164;-64
2022/05/02 09:28:29;;;;;;;12.48;5.47;;;33.10;47.10;;;;;;5033409;28;20041;-60
2022/05/02 09:31:32;;;;;;;6.57;4.78;;;33.00;47.00;;;;;;5040668;28;20037;-61
2022/05/02 09:34:03;;;;;;;10.20;5.13;;;33.30;46.40;;;;;;5052090;28;20025;-61
2022/05/02 09:36:43;;;;;;;8.65;5.60;;;33.70;46.40;;;;;;5067174;28;20016;-62
2022/05/02 09:39:22;;;;;;;6.93;4.13;;;34.00;45.70;;;;;;5072039;28;20113;-63
2022/05/02 09:42:19;;;;;;;7.18;4.32;;;34.20;44.20;;;;;;5068353;28;20373;-61
2022/05/02 09:51:27;;;;;;;6.25;3.55;;;34.70;43.10;;;;;;5028339;28;20070;-62
2022/05/02 09:54:08;;;;;;;6.88;4.03;;;34.80;42.00;;;;;;5052825;28;20017;-62
2022/05/02 09:56:43;;;;;;;6.25;4.18;;;34.60;41.90;;;;;;5053252;28;20408;-61
2022/05/02 09:59:22;;;;;;;7.82;4.95;;;34.40;41.90;;;;;;5053103;28;20033;-65
2022/05/02 10:02:18;;;;;;;8.27;4.90;;;34.30;42.80;;;;;;5052786;28;20488;-64
2022/05/02 10:05:03;;;;;;;8.95;5.78;;;33.90;42.30;;;;;;5052501;28;20029;-63
2022/05/02 10:07:29;;;;;;;8.75;4.97;;;33.40;43.00;;;;;;5052380;28;20108;-61
2022/05/02 10:10:09;;;;;;;6.88;4.72;;;33.30;43.50;;;;;;5048104;28;20533;-62
2022/05/02 10:13:06;;;;;;;7.88;5.15;;;33.40;43.80;;;;;;5048443;28;20546;-61
2022/05/02 10:15:53;;;;;;;8.52;5.60;;;33.80;43.00;;;;;;5050617;28;20016;-63
2022/05/02 10:18:47;;;;;;;6.63;4.28;;;33.80;42.60;;;;;;5052535;28;20028;-63
2022/05/02 10:21:49;;;;;;;8.80;5.20;;;33.60;42.20;;;;;;5065934;28;20078;-64
2022/05/02 10:24:52;;;;;;;9.70;5.72;;;33.30;42.30;;;;;;5071291;28;20029;-61
2022/05/02 10:27:52;;;;;;;13.68;7.38;;;33.50;42.30;;;;;;5050679;28;20083;-65
2022/05/02 10:30:19;;;;;;;8.73;6.13;;;34.00;42.70;;;;;;5058544;28;20032;-61
2022/05/02 10:32:50;;;;;;;7.60;4.30;;;34.40;42.00;;;;;;5054586;28;20040;-61
2022/05/02 10:35:18;;;;;;;6.63;4.85;;;34.80;41.30;;;;;;5072321;28;20031;-63
2022/05/02 10:37:56;;;;;;;7.55;4.78;;;34.60;41.50;;;;;;5066082;28;20078;-64
2022/05/02 10:40:42;;;;;;;6.82;4.97;;;33.80;41.70;;;;;;5031973;28;20056;-65
2022/05/02 10:43:10;;;;;;;8.90;4.20;;;33.40;41.70;;;;;;5052242;28;20029;-63
2022/05/02 10:45:38;;;;;;;7.10;3.88;;;33.30;40.80;;;;;;5065648;28;20462;-62
2022/05/02 10:48:18;;;;;;;5.75;3.92;;;33.50;40.20;;;;;;5060202;28;20510;-61
2022/05/02 10:51:11;;;;;;;7.60;4.07;;;33.70;40.00;;;;;;5052156;28;20033;-64
2022/05/02 10:53:55;;;;;;;6.50;3.70;;;33.00;39.70;;;;;;5049061;28;20044;-61
2022/05/02 10:56:24;;;;;;;7.35;4.30;;;32.40;40.00;;;;;;5044413;28;20021;-62
2022/05/02 10:58:52;;;;;;;4.20;3.60;;;32.40;40.70;;;;;;5058509;28;20063;-61
2022/05/02 11:01:44;;;;;;;6.78;4.10;;;32.20;40.30;;;;;;5062234;28;20491;-65
2022/05/02 11:04:34;;;;;;;9.32;5.13;;;32.00;40.90;;;;;;5067305;28;20104;-64
2022/05/02 11:07:21;;;;;;;6.93;4.50;;;31.90;41.80;;;;;;5048219;28;20372;-65
2022/05/02 11:09:56;;;;;;;9.73;4.72;;;32.40;41.30;;;;;;5056863;28;20040;-64
2022/05/02 11:12:22;;;;;;;8.50;4.82;;;33.10;41.00;;;;;;5064841;28;20372;-62
2022/05/02 11:15:01;;;;;;;10.05;4.60;;;33.70;40.70;;;;;;5064484;28;20025;-65
2022/05/02 11:17:55;;;;;;;6.03;4.15;;;33.80;40.50;;;;;;5063719;28;20035;-63
2022/05/02 11:20:43;;;;;;;9.40;4.75;;;33.70;40.40;;;;;;5055085;28;20100;-64
2022/05/02 11:23:18;;;;;;;8.38;5.28;;;33.10;41.20;;;;;;5060893;28;20067;-62
2022/05/02 11:26:21;;;;;;;8.30;4.32;;;32.40;41.40;;;;;;5056767;28;20103;-62
2022/05/02 11:29:14;;;;;;;7.30;4.85;;;32.10;40.70;;;;;;5044324;28;20461;-61
2022/05/02 11:31:47;;;;;;;8.07;4.90;;;32.10;41.20;;;;;;5055552;28;20025;-61
2022/05/02 11:34:22;;;;;;;6.97;4.10;;;32.30;41.00;;;;;;5064526;28;20445;-62
2022/05/02 11:36:53;;;;;;;9.40;4.65;;;32.40;40.90;;;;;;5064128;28;20029;-61
2022/05/02 11:39:57;;;;;;;6.97;4.68;;;32.30;40.30;;;;;;5057127;28;20506;-63
2022/05/02 11:42:27;;;;;;;7.88;4.95;;;32.30;41.30;;;;;;5067390;28;20021;-61
2022/05/02 11:45:11;;;;;;;9.65;5.80;;;32.80;42.90;;;;;;5058653;28;20475;-63
2022/05/02 11:47:54;;;;;;;10.82;5.25;;;33.30;43.00;;;;;;5056784;28;20044;-63
2022/05/02 11:50:24;;;;;;;9.43;5.22;;;33.80;42.60;;;;;;5053823;28;20071;-61
2022/05/02 11:52:55;;;;;;;9.25;5.47;;;33.50;43.00;;;;;;5065055;28;20068;-65
2022/05/02 11:55:29;;;;;;;10.55;5.57;;;32.80;43.40;;;;;;5064885;28;20047;-63
2022/05/02 11:58:14;;;;;;;8.55;4.75;;;32.50;43.40;;;;;;5067672;28;20471;-65
2022/05/02 12:00:42;;;;;;;9.98;4.85;;;32.50;43.10;;;;;;5045560;28;20028;-62
2022/05/02 12:03:16;;;;;;;7.47;5.00;;;32.10;43.50;;;;;;5064156;28;20074;-62
2022/05/02 12:05:52;;;;;;;12.07;5.45;;;31.70;43.60;;;;;;5068703;28;20027;-62
2022/05/02 12:08:37;;;;;;;10.43;4.88;;;31.00;44.40;;;;;;5057206;28;20036;-63
2022/05/02 12:11:08;;;;;;;9.85;4.72;;;31.00;44.20;;;;;;5063932;28;20039;-61
2022/05/02 12:13:40;;;;;;;9.65;4.75;;;31.10;44.10;;;;;;5052518;28;20017;-61
2022/05/02 12:16:14;;;;;;;9.00;4.38;;;31.20;44.10;;;;;;5070263;28;20052;-62
2022/05/02 12:18:49;;;;;;;8.98;4.47;;;31.40;43.60;;;;;;5059352;28;20106;-62
2022/05/02 12:21:35;;;;;;;5.95;4.13;;;31.60;43.60;;;;;;5063482;28;20056;-64
2022/05/02 12:24:02;;;;;;;6.60;4.15;;;31.70;43.40;;;;;;5063067;28;20037;-64
2022/05/02 12:26:28;;;;;;;5.03;3.85;;;32.00;43.00;;;;;;5065801;28;20020;-62
2022/05/02 12:28:58;;;;;;;9.80;3.58;;;32.30;42.50;;;;;;5072620;28;20095;-63
2022/05/02 12:31:30;;;;;;;7.75;3.80;;;32.40;42.40;;;;;;5054468;28;20120;-62
2022/05/02 12:34:06;;;;;;;5.72;3.50;;;32.50;42.40;;;;;;5053622;28;20025;-62
2022/05/02 12:36:44;;;;;;;11.40;3.60;;;32.30;42.10;;;;;;5053397;28;20032;-62
2022/05/02 12:39:16;;;;;;;8.32;4.00;;;32.00;42.10;;;;;;5054148;28;20100;-63
2022/05/02 12:41:45;;;;;;;7.55;3.88;;;31.50;42.10;;;;;;5053438;28;20086;-61
2022/05/02 12:44:13;;;;;;;6.05;3.58;;;31.10;42.60;;;;;;5052824;28;20017;-64
2022/05/02 12:46:43;;;;;;;4.18;2.92;;;30.70;42.80;;;;;;5051966;28;20032;-61
2022/05/02 12:49:26;;;;;;;6.15;3.47;;;30.10;43.30;;;;;;5052799;28;20041;-62
2022/05/02 12:51:56;;;;;;;5.97;3.20;;;29.60;43.80;;;;;;5053643;28;20029;-65
2022/05/02 12:54:28;;;;;;;7.25;4.38;;;29.20;45.00;;;;;;5052949;28;20057;-64
2022/05/02 13:02:45;;;;;;;7.03;3.40;;;27.70;44.90;;;;;;5053359;28;20071;-64
2022/05/02 13:05:16;;;;;;;11.25;3.67;;;27.20;45.30;;;;;;5048457;28;20055;-65
2022/05/02 13:07:47;;;;;;;7.47;3.45;;;26.80;45.90;;;;;;5051951;28;20025;-64
2022/05/02 13:10:24;;;;;;;5.30;3.20;;;26.30;46.10;;;;;;5053377;28;20045;-64
2022/05/02 13:13:05;;;;;;;8.20;3.00;;;25.90;46.80;;;;;;5052846;28;20032;-64
2022/05/02 13:15:36;;;;;;;7.30;3.17;;;25.60;46.60;;;;;;5053118;28;20465;-62
2022/05/02 13:18:14;;;;;;;8.50;3.60;;;25.30;47.20;;;;;;5052654;28;20025;-64
2022/05/02 13:20:41;;;;;;;7.40;3.40;;;25.20;47.10;;;;;;5052494;28;20069;-62
2022/05/02 13:23:10;;;;;;;8.02;3.67;;;25.10;47.20;;;;;;5052918;28;20033;-62
2022/05/02 13:25:51;;;;;;;9.15;3.05;;;24.90;47.10;;;;;;5053115;28;20024;-62
2022/05/02 13:28:26;;;;;;;8.02;3.40;;;24.70;47.10;;;;;;5052886;28;20147;-64
2022/05/02 13:30:57;;;;;;;11.38;3.40;;;24.60;47.10;;;;;;5053353;28;20116;-65
2022/05/02 13:33:43;;;;;;;;;;;24.60;47.50;;;;;;5053796;28;20036;-62
2022/05/02 13:36:09;;;;;;;5.63;2.50;;;24.60;47.60;;;;;;5053164;28;19954;-65
2022/05/02 13:39:07;;;;;;;7.10;3.08;;;24.40;47.50;;;;;;5052015;28;20028;-64
2022/05/02 13:41:48;;;;;;;5.65;2.85;;;24.30;47.50;;;;;;5044461;28;20111;-61
2022/05/02 13:44:21;;;;;;;8.70;3.08;;;24.20;47.60;;;;;;5051443;28;20029;-62
2022/05/02 13:47:09;;;;;;;9.07;3.03;;;24.10;48.30;;;;;;5052427;28;20024;-62